sensor_id;sensor_type;location;lat;lon;timestamp;pressure;altitude;pressure_sealevel;temperature;humidity
51053;BME280;37093;37.716;-122.060;2022-10-23T00:01:16;99085.90;;;22.35;24.45
51053;BME280;37093;37.716;-122.060;2022-10-23T00:03:46;99081.70;;;21.75;24.30
51053;BME280;37093;37.716;-122.060;2022-10-23T00:06:16;99082.93;;;21.68;24.26
51053;BME280;37093;37.716;-122.060;2022-10-23T00:08:45;99082.64;;;21.88;24.12
51053;BME280;37093;37.716;-122.060;2022-10-23T00:11:16;99078.11;;;22.20;23.73
51053;BME280;37093;37.716;-122.060;2022-10-23T00:13:45;99075.95;;;21.94;23.91
51053;BME280;37093;37.716;-122.060;2022-10-23T00:16:15;99078.91;;;21.71;24.34
51053;BME280;37093;37.716;-122.060;2022-10-23T00:18:44;99078.14;;;22.14;23.84
51053;BME280;37093;37.716;-122.060;2022-10-23T00:21:14;99083.95;;;21.67;24.72
51053;BME280;37093;37.716;-122.060;2022-10-23T00:23:43;99083.87;;;21.81;24.66
51053;BME280;37093;37.716;-122.060;2022-10-23T00:26:11;99083.19;;;22.01;24.31
51053;BME280;37093;37.716;-122.060;2022-10-23T00:28:39;99086.85;;;22.01;24.62
51053;BME280;37093;37.716;-122.060;2022-10-23T00:31:08;99095.04;;;21.80;24.83
51053;BME280;37093;37.716;-122.060;2022-10-23T00:33:37;99096.72;;;21.70;24.52
51053;BME280;37093;37.716;-122.060;2022-10-23T00:36:06;99096.18;;;21.94;24.62
51053;BME280;37093;37.716;-122.060;2022-10-23T00:38:36;99097.22;;;21.49;24.93
51053;BME280;37093;37.716;-122.060;2022-10-23T00:41:07;99091.24;;;21.62;24.76
51053;BME280;37093;37.716;-122.060;2022-10-23T00:43:57;99087.45;;;21.08;25.39
51053;BME280;37093;37.716;-122.060;2022-10-23T00:46:26;99083.45;;;21.45;25.29
51053;BME280;37093;37.716;-122.060;2022-10-23T00:48:55;99084.56;;;21.73;24.64
51053;BME280;37093;37.716;-122.060;2022-10-23T00:51:25;99091.96;;;21.77;24.68
51053;BME280;37093;37.716;-122.060;2022-10-23T00:53:58;99089.53;;;21.36;24.50
51053;BME280;37093;37.716;-122.060;2022-10-23T00:56:27;99083.81;;;21.51;24.89
51053;BME280;37093;37.716;-122.060;2022-10-23T00:58:55;99085.80;;;20.22;26.00
51053;BME280;37093;37.716;-122.060;2022-10-23T01:01:24;99085.87;;;20.78;25.31
51053;BME280;37093;37.716;-122.060;2022-10-23T01:03:52;99090.95;;;20.96;25.54
51053;BME280;37093;37.716;-122.060;2022-10-23T01:06:29;99093.43;;;20.66;25.87
51053;BME280;37093;37.716;-122.060;2022-10-23T01:09:08;99085.44;;;20.87;25.69
51053;BME280;37093;37.716;-122.060;2022-10-23T01:11:44;99087.66;;;20.85;25.91
51053;BME280;37093;37.716;-122.060;2022-10-23T01:14:20;99091.89;;;21.00;26.36
51053;BME280;37093;37.716;-122.060;2022-10-23T01:16:59;99090.94;;;20.45;27.07
51053;BME280;37093;37.716;-122.060;2022-10-23T01:19:42;99094.46;;;20.91;26.95
51053;BME280;37093;37.716;-122.060;2022-10-23T01:22:30;99098.94;;;20.88;26.82
51053;BME280;37093;37.716;-122.060;2022-10-23T01:25:09;99108.22;;;21.12;26.55
51053;BME280;37093;37.716;-122.060;2022-10-23T01:27:41;99115.21;;;20.96;26.68
51053;BME280;37093;37.716;-122.060;2022-10-23T01:30:16;99116.72;;;20.95;26.58
51053;BME280;37093;37.716;-122.060;2022-10-23T01:32:50;99115.79;;;21.52;26.40
51053;BME280;37093;37.716;-122.060;2022-10-23T01:35:23;99116.66;;;21.75;25.94
51053;BME280;37093;37.716;-122.060;2022-10-23T01:37:55;99122.89;;;21.52;26.28
51053;BME280;37093;37.716;-122.060;2022-10-23T01:40:33;99122.24;;;21.45;26.46
51053;BME280;37093;37.716;-122.060;2022-10-23T01:43:05;99118.48;;;22.13;25.66
51053;BME280;37093;37.716;-122.060;2022-10-23T01:45:39;99114.84;;;21.36;26.19
51053;BME280;37093;37.716;-122.060;2022-10-23T01:48:12;99117.22;;;21.69;26.11
51053;BME280;37093;37.716;-122.060;2022-10-23T01:50:43;99114.07;;;21.20;26.71
51053;BME280;37093;37.716;-122.060;2022-10-23T01:53:12;99112.54;;;20.98;27.07
51053;BME280;37093;37.716;-122.060;2022-10-23T01:55:41;99108.77;;;20.47;27.67
51053;BME280;37093;37.716;-122.060;2022-10-23T01:58:11;99110.57;;;20.56;27.68
51053;BME280;37093;37.716;-122.060;2022-10-23T02:00:41;99105.55;;;20.35;27.70
51053;BME280;37093;37.716;-122.060;2022-10-23T02:03:13;99107.72;;;20.59;27.87
51053;BME280;37093;37.716;-122.060;2022-10-23T02:05:43;99113.35;;;20.68;27.81
51053;BME280;37093;37.716;-122.060;2022-10-23T02:08:12;99116.88;;;20.42;27.76
51053;BME280;37093;37.716;-122.060;2022-10-23T02:10:46;99117.29;;;20.63;27.89
51053;BME280;37093;37.716;-122.060;2022-10-23T02:13:20;99125.47;;;20.68;27.78
51053;BME280;37093;37.716;-122.060;2022-10-23T02:15:59;99134.88;;;20.68;27.76
51053;BME280;37093;37.716;-122.060;2022-10-23T02:18:37;99140.55;;;20.53;27.74
51053;BME280;37093;37.716;-122.060;2022-10-23T02:21:11;99145.17;;;20.72;27.49
51053;BME280;37093;37.716;-122.060;2022-10-23T02:23:43;99145.89;;;21.00;27.34
51053;BME280;37093;37.716;-122.060;2022-10-23T02:26:16;99153.38;;;20.58;27.64
51053;BME280;37093;37.716;-122.060;2022-10-23T02:28:50;99163.72;;;20.56;27.79
51053;BME280;37093;37.716;-122.060;2022-10-23T02:31:22;99174.00;;;20.38;27.77
51053;BME280;37093;37.716;-122.060;2022-10-23T02:33:50;99175.29;;;20.59;27.66
51053;BME280;37093;37.716;-122.060;2022-10-23T02:36:19;99176.75;;;20.81;27.55
51053;BME280;37093;37.716;-122.060;2022-10-23T02:38:47;99176.57;;;21.17;27.25
51053;BME280;37093;37.716;-122.060;2022-10-23T02:41:25;99175.88;;;20.95;27.31
51053;BME280;37093;37.716;-122.060;2022-10-23T02:44:06;99174.55;;;21.06;27.31
51053;BME280;37093;37.716;-122.060;2022-10-23T02:46:44;99173.92;;;20.85;27.44
51053;BME280;37093;37.716;-122.060;2022-10-23T02:49:21;99175.16;;;20.92;27.36
51053;BME280;37093;37.716;-122.060;2022-10-23T02:51:59;99178.08;;;20.74;27.46
51053;BME280;37093;37.716;-122.060;2022-10-23T02:54:42;99187.00;;;20.80;27.49
51053;BME280;37093;37.716;-122.060;2022-10-23T02:57:21;99192.90;;;20.46;27.56
51053;BME280;37093;37.716;-122.060;2022-10-23T02:59:56;99199.00;;;20.59;27.53
51053;BME280;37093;37.716;-122.060;2022-10-23T03:02:29;99201.77;;;20.87;27.47
51053;BME280;37093;37.716;-122.060;2022-10-23T03:05:01;99201.57;;;20.92;27.39
51053;BME280;37093;37.716;-122.060;2022-10-23T03:07:31;99204.16;;;20.92;27.76
51053;BME280;37093;37.716;-122.060;2022-10-23T03:09:59;99204.25;;;20.92;27.71
51053;BME280;37093;37.716;-122.060;2022-10-23T03:12:27;99206.14;;;20.91;27.61
51053;BME280;37093;37.716;-122.060;2022-10-23T03:14:56;99211.82;;;20.88;27.68
51053;BME280;37093;37.716;-122.060;2022-10-23T03:17:25;99207.15;;;20.63;27.76
51053;BME280;37093;37.716;-122.060;2022-10-23T03:19:55;99210.93;;;20.50;27.81
51053;BME280;37093;37.716;-122.060;2022-10-23T03:22:23;99210.18;;;20.55;27.52
51053;BME280;37093;37.716;-122.060;2022-10-23T03:24:51;99209.07;;;21.02;27.54
51053;BME280;37093;37.716;-122.060;2022-10-23T03:27:20;99209.22;;;20.97;27.78
51053;BME280;37093;37.716;-122.060;2022-10-23T03:29:48;99202.87;;;20.67;27.78
51053;BME280;37093;37.716;-122.060;2022-10-23T03:32:17;99210.30;;;20.65;27.84
51053;BME280;37093;37.716;-122.060;2022-10-23T03:34:45;99210.22;;;20.59;27.76
51053;BME280;37093;37.716;-122.060;2022-10-23T03:37:14;99214.99;;;20.51;27.75
51053;BME280;37093;37.716;-122.060;2022-10-23T03:39:42;99224.28;;;20.48;27.61
51053;BME280;37093;37.716;-122.060;2022-10-23T03:42:10;99221.39;;;20.42;27.73
51053;BME280;37093;37.716;-122.060;2022-10-23T03:44:39;99227.32;;;20.36;27.83
51053;BME280;37093;37.716;-122.060;2022-10-23T03:47:07;99226.96;;;20.34;28.02
51053;BME280;37093;37.716;-122.060;2022-10-23T03:49:37;99230.94;;;20.27;27.98
51053;BME280;37093;37.716;-122.060;2022-10-23T03:52:05;99231.41;;;20.50;28.12
51053;BME280;37093;37.716;-122.060;2022-10-23T03:54:35;99238.22;;;20.35;28.05
51053;BME280;37093;37.716;-122.060;2022-10-23T03:57:04;99236.56;;;20.29;28.17
51053;BME280;37093;37.716;-122.060;2022-10-23T03:59:31;99245.33;;;20.23;28.32
51053;BME280;37093;37.716;-122.060;2022-10-23T04:02:00;99253.51;;;20.22;28.37
51053;BME280;37093;37.716;-122.060;2022-10-23T04:04:29;99259.90;;;20.16;28.48
51053;BME280;37093;37.716;-122.060;2022-10-23T04:06:57;99269.17;;;20.16;28.45
51053;BME280;37093;37.716;-122.060;2022-10-23T04:09:26;99268.90;;;20.08;28.49
51053;BME280;37093;37.716;-122.060;2022-10-23T04:11:56;99267.21;;;20.04;28.42
51053;BME280;37093;37.716;-122.060;2022-10-23T04:14:24;99271.45;;;19.93;28.48
51053;BME280;37093;37.716;-122.060;2022-10-23T04:16:53;99275.89;;;19.90;28.52
51053;BME280;37093;37.716;-122.060;2022-10-23T04:19:21;99275.45;;;19.81;28.40
51053;BME280;37093;37.716;-122.060;2022-10-23T04:21:50;99273.56;;;19.78;28.58
51053;BME280;37093;37.716;-122.060;2022-10-23T04:24:18;99271.29;;;19.67;28.69
51053;BME280;37093;37.716;-122.060;2022-10-23T04:26:47;99276.91;;;19.87;28.67
51053;BME280;37093;37.716;-122.060;2022-10-23T04:29:15;99278.17;;;19.58;28.93
51053;BME280;37093;37.716;-122.060;2022-10-23T04:31:43;99284.75;;;19.65;28.81
51053;BME280;37093;37.716;-122.060;2022-10-23T04:34:12;99284.19;;;19.65;29.11
51053;BME280;37093;37.716;-122.060;2022-10-23T04:36:41;99283.90;;;19.67;29.08
51053;BME280;37093;37.716;-122.060;2022-10-23T04:39:09;99283.66;;;20.06;29.16
51053;BME280;37093;37.716;-122.060;2022-10-23T04:41:38;99293.04;;;20.05;29.15
51053;BME280;37093;37.716;-122.060;2022-10-23T04:44:07;99293.25;;;19.79;29.12
51053;BME280;37093;37.716;-122.060;2022-10-23T04:46:36;99294.61;;;19.76;29.14
51053;BME280;37093;37.716;-122.060;2022-10-23T04:49:05;99294.27;;;19.51;29.10
51053;BME280;37093;37.716;-122.060;2022-10-23T04:51:33;99296.27;;;19.71;28.98
51053;BME280;37093;37.716;-122.060;2022-10-23T04:54:02;99297.11;;;19.89;29.03
51053;BME280;37093;37.716;-122.060;2022-10-23T04:56:31;99296.06;;;19.65;29.11
51053;BME280;37093;37.716;-122.060;2022-10-23T04:58:59;99304.20;;;19.81;29.23
51053;BME280;37093;37.716;-122.060;2022-10-23T05:01:28;99306.06;;;19.32;29.22
51053;BME280;37093;37.716;-122.060;2022-10-23T05:03:56;99304.44;;;19.51;29.34
51053;BME280;37093;37.716;-122.060;2022-10-23T05:06:25;99305.34;;;19.68;29.33
51053;BME280;37093;37.716;-122.060;2022-10-23T05:08:53;99305.66;;;19.40;29.21
51053;BME280;37093;37.716;-122.060;2022-10-23T05:11:22;99310.47;;;19.58;29.22
51053;BME280;37093;37.716;-122.060;2022-10-23T05:13:50;99313.15;;;19.31;29.45
51053;BME280;37093;37.716;-122.060;2022-10-23T05:16:30;99316.03;;;19.27;29.43
51053;BME280;37093;37.716;-122.060;2022-10-23T05:19:00;99317.78;;;19.21;29.37
51053;BME280;37093;37.716;-122.060;2022-10-23T05:21:31;99317.54;;;19.38;29.54
51053;BME280;37093;37.716;-122.060;2022-10-23T05:24:02;99321.45;;;19.31;29.60
51053;BME280;37093;37.716;-122.060;2022-10-23T05:26:31;99319.56;;;19.25;29.69
51053;BME280;37093;37.716;-122.060;2022-10-23T05:28:59;99325.07;;;19.16;29.67
51053;BME280;37093;37.716;-122.060;2022-10-23T05:31:28;99328.42;;;19.13;29.67
51053;BME280;37093;37.716;-122.060;2022-10-23T05:33:57;99329.63;;;18.84;29.92
51053;BME280;37093;37.716;-122.060;2022-10-23T05:36:26;99333.66;;;19.00;29.78
51053;BME280;37093;37.716;-122.060;2022-10-23T05:38:54;99340.57;;;18.95;29.60
51053;BME280;37093;37.716;-122.060;2022-10-23T05:41:22;99341.53;;;18.91;30.03
51053;BME280;37093;37.716;-122.060;2022-10-23T05:43:51;99345.72;;;19.14;29.93
51053;BME280;37093;37.716;-122.060;2022-10-23T05:46:19;99351.67;;;18.86;30.18
51053;BME280;37093;37.716;-122.060;2022-10-23T05:48:49;99350.74;;;19.11;30.28
51053;BME280;37093;37.716;-122.060;2022-10-23T05:51:19;99356.93;;;19.03;29.98
51053;BME280;37093;37.716;-122.060;2022-10-23T05:53:47;99368.93;;;18.99;29.86
51053;BME280;37093;37.716;-122.060;2022-10-23T05:56:15;99374.00;;;18.63;30.27
51053;BME280;37093;37.716;-122.060;2022-10-23T05:58:44;99379.55;;;19.05;30.36
51053;BME280;37093;37.716;-122.060;2022-10-23T06:01:14;99381.61;;;18.56;30.43
51053;BME280;37093;37.716;-122.060;2022-10-23T06:03:42;99380.08;;;18.82;30.39
51053;BME280;37093;37.716;-122.060;2022-10-23T06:06:11;99379.37;;;18.53;30.47
51053;BME280;37093;37.716;-122.060;2022-10-23T06:08:39;99383.61;;;18.48;30.64
51053;BME280;37093;37.716;-122.060;2022-10-23T06:11:09;99391.32;;;18.70;30.31
51053;BME280;37093;37.716;-122.060;2022-10-23T06:13:37;99391.16;;;18.88;30.51
51053;BME280;37093;37.716;-122.060;2022-10-23T06:16:12;99395.39;;;18.62;30.41
51053;BME280;37093;37.716;-122.060;2022-10-23T06:18:41;99402.37;;;18.59;30.56
51053;BME280;37093;37.716;-122.060;2022-10-23T06:21:09;99407.46;;;18.59;30.70
51053;BME280;37093;37.716;-122.060;2022-10-23T06:23:38;99405.40;;;18.79;30.75
51053;BME280;37093;37.716;-122.060;2022-10-23T06:26:09;99405.27;;;18.26;30.68
51053;BME280;37093;37.716;-122.060;2022-10-23T06:28:38;99408.72;;;18.50;30.41
51053;BME280;37093;37.716;-122.060;2022-10-23T06:31:09;99409.70;;;18.20;30.50
51053;BME280;37093;37.716;-122.060;2022-10-23T06:33:39;99403.41;;;18.68;30.75
51053;BME280;37093;37.716;-122.060;2022-10-23T06:36:08;99402.21;;;18.40;30.80
51053;BME280;37093;37.716;-122.060;2022-10-23T06:38:37;99404.38;;;18.35;30.67
51053;BME280;37093;37.716;-122.060;2022-10-23T06:41:10;99406.50;;;18.48;30.71
51053;BME280;37093;37.716;-122.060;2022-10-23T06:43:39;99410.84;;;18.28;30.52
51053;BME280;37093;37.716;-122.060;2022-10-23T06:46:08;99414.91;;;18.45;30.76
51053;BME280;37093;37.716;-122.060;2022-10-23T06:48:37;99419.84;;;18.46;30.69
51053;BME280;37093;37.716;-122.060;2022-10-23T06:51:09;99425.72;;;18.40;30.63
51053;BME280;37093;37.716;-122.060;2022-10-23T06:53:38;99426.98;;;18.22;30.65
51053;BME280;37093;37.716;-122.060;2022-10-23T06:56:07;99428.48;;;18.21;30.75
51053;BME280;37093;37.716;-122.060;2022-10-23T06:58:37;99428.30;;;18.23;30.68
51053;BME280;37093;37.716;-122.060;2022-10-23T07:01:13;99427.77;;;17.04;30.87
51053;BME280;37093;37.716;-122.060;2022-10-23T07:03:42;99431.60;;;17.26;29.76
51053;BME280;37093;37.716;-122.060;2022-10-23T07:06:11;99435.02;;;18.94;28.52
51053;BME280;37093;37.716;-122.060;2022-10-23T07:08:39;99434.92;;;19.34;28.57
51053;BME280;37093;37.716;-122.060;2022-10-23T07:11:09;99434.39;;;18.40;29.80
51053;BME280;37093;37.716;-122.060;2022-10-23T07:13:39;99436.50;;;18.53;29.99
51053;BME280;37093;37.716;-122.060;2022-10-23T07:16:11;99436.29;;;18.24;30.03
51053;BME280;37093;37.716;-122.060;2022-10-23T07:18:40;99441.19;;;18.32;30.22
51053;BME280;37093;37.716;-122.060;2022-10-23T07:21:09;99440.87;;;18.20;30.49
51053;BME280;37093;37.716;-122.060;2022-10-23T07:23:37;99436.63;;;18.10;30.60
51053;BME280;37093;37.716;-122.060;2022-10-23T07:26:07;99440.22;;;17.76;30.71
51053;BME280;37093;37.716;-122.060;2022-10-23T07:28:37;99442.21;;;17.97;30.45
51053;BME280;37093;37.716;-122.060;2022-10-23T07:31:06;99442.52;;;17.88;30.41
51053;BME280;37093;37.716;-122.060;2022-10-23T07:33:34;99446.70;;;17.86;30.53
51053;BME280;37093;37.716;-122.060;2022-10-23T07:36:05;99444.45;;;17.82;30.40
51053;BME280;37093;37.716;-122.060;2022-10-23T07:38:33;99449.02;;;17.60;30.47
51053;BME280;37093;37.716;-122.060;2022-10-23T07:41:02;99450.42;;;17.34;31.06
51053;BME280;37093;37.716;-122.060;2022-10-23T07:43:30;99451.40;;;17.57;30.89
51053;BME280;37093;37.716;-122.060;2022-10-23T07:45:59;99451.92;;;17.53;30.92
51053;BME280;37093;37.716;-122.060;2022-10-23T07:48:28;99453.89;;;17.58;30.62
51053;BME280;37093;37.716;-122.060;2022-10-23T07:50:58;99451.64;;;17.52;30.84
51053;BME280;37093;37.716;-122.060;2022-10-23T07:53:27;99453.08;;;17.52;30.73
51053;BME280;37093;37.716;-122.060;2022-10-23T07:55:56;99455.64;;;17.44;30.68
51053;BME280;37093;37.716;-122.060;2022-10-23T07:58:26;99457.64;;;17.43;30.35
51053;BME280;37093;37.716;-122.060;2022-10-23T08:00:56;99460.32;;;16.30;31.72
51053;BME280;37093;37.716;-122.060;2022-10-23T08:03:25;99464.38;;;16.63;31.07
51053;BME280;37093;37.716;-122.060;2022-10-23T08:05:54;99474.65;;;16.99;30.39
51053;BME280;37093;37.716;-122.060;2022-10-23T08:08:24;99473.75;;;17.31;30.05
51053;BME280;37093;37.716;-122.060;2022-10-23T08:10:55;99480.44;;;17.31;29.97
51053;BME280;37093;37.716;-122.060;2022-10-23T08:13:23;99482.76;;;17.20;29.87
51053;BME280;37093;37.716;-122.060;2022-10-23T08:15:52;99486.99;;;17.01;29.79
51053;BME280;37093;37.716;-122.060;2022-10-23T08:18:20;99487.82;;;17.30;29.65
51053;BME280;37093;37.716;-122.060;2022-10-23T08:20:49;99490.29;;;17.27;29.62
51053;BME280;37093;37.716;-122.060;2022-10-23T08:23:18;99493.99;;;17.03;29.58
51053;BME280;37093;37.716;-122.060;2022-10-23T08:25:47;99493.73;;;17.26;29.80
51053;BME280;37093;37.716;-122.060;2022-10-23T08:28:15;99492.99;;;17.29;29.58
51053;BME280;37093;37.716;-122.060;2022-10-23T08:30:44;99496.11;;;17.00;29.59
51053;BME280;37093;37.716;-122.060;2022-10-23T08:33:12;99499.57;;;17.02;29.61
51053;BME280;37093;37.716;-122.060;2022-10-23T08:35:41;99506.73;;;16.68;29.78
51053;BME280;37093;37.716;-122.060;2022-10-23T08:38:10;99508.54;;;17.10;29.67
51053;BME280;37093;37.716;-122.060;2022-10-23T08:40:43;99505.86;;;17.09;29.81
51053;BME280;37093;37.716;-122.060;2022-10-23T08:43:16;99506.16;;;17.18;29.49
51053;BME280;37093;37.716;-122.060;2022-10-23T08:45:50;99505.56;;;17.00;29.66
51053;BME280;37093;37.716;-122.060;2022-10-23T08:48:22;99507.29;;;17.22;29.51
51053;BME280;37093;37.716;-122.060;2022-10-23T08:50:55;99513.45;;;17.21;29.74
51053;BME280;37093;37.716;-122.060;2022-10-23T08:53:28;99512.10;;;16.73;29.93
51053;BME280;37093;37.716;-122.060;2022-10-23T08:56:02;99511.64;;;17.01;29.85
51053;BME280;37093;37.716;-122.060;2022-10-23T08:58:37;99508.54;;;17.24;29.85
51053;BME280;37093;37.716;-122.060;2022-10-23T09:01:29;99508.76;;;17.19;29.77
51053;BME280;37093;37.716;-122.060;2022-10-23T09:03:58;99508.99;;;16.98;29.43
51053;BME280;37093;37.716;-122.060;2022-10-23T09:06:35;99505.62;;;16.86;29.57
51053;BME280;37093;37.716;-122.060;2022-10-23T09:09:21;99508.18;;;17.09;29.80
51053;BME280;37093;37.716;-122.060;2022-10-23T09:11:59;99511.74;;;16.83;29.99
51053;BME280;37093;37.716;-122.060;2022-10-23T09:14:42;99512.81;;;16.56;29.81
51053;BME280;37093;37.716;-122.060;2022-10-23T09:17:24;99520.16;;;17.01;29.58
51053;BME280;37093;37.716;-122.060;2022-10-23T09:19:59;99524.17;;;16.99;29.33
51053;BME280;37093;37.716;-122.060;2022-10-23T09:22:29;99521.08;;;16.43;29.42
51053;BME280;37093;37.716;-122.060;2022-10-23T09:24:57;99522.69;;;16.63;29.65
51053;BME280;37093;37.716;-122.060;2022-10-23T09:27:26;99524.87;;;16.71;29.55
51053;BME280;37093;37.716;-122.060;2022-10-23T09:29:55;99524.75;;;16.75;29.44
51053;BME280;37093;37.716;-122.060;2022-10-23T09:32:40;99528.54;;;16.72;29.63
51053;BME280;37093;37.716;-122.060;2022-10-23T09:35:21;99533.45;;;16.49;29.60
51053;BME280;37093;37.716;-122.060;2022-10-23T09:37:49;99536.64;;;16.46;29.41
51053;BME280;37093;37.716;-122.060;2022-10-23T09:40:21;99543.94;;;16.41;29.61
51053;BME280;37093;37.716;-122.060;2022-10-23T09:42:54;99540.47;;;16.59;29.50
51053;BME280;37093;37.716;-122.060;2022-10-23T09:45:27;99542.66;;;16.53;29.53
51053;BME280;37093;37.716;-122.060;2022-10-23T09:48:07;99545.45;;;16.54;29.35
51053;BME280;37093;37.716;-122.060;2022-10-23T09:50:45;99548.91;;;16.52;29.32
51053;BME280;37093;37.716;-122.060;2022-10-23T09:53:17;99553.67;;;16.30;29.56
51053;BME280;37093;37.716;-122.060;2022-10-23T09:55:52;99557.83;;;16.47;29.56
51053;BME280;37093;37.716;-122.060;2022-10-23T09:58:27;99562.83;;;16.69;29.52
51053;BME280;37093;37.716;-122.060;2022-10-23T10:00:57;99566.78;;;16.42;29.60
51053;BME280;37093;37.716;-122.060;2022-10-23T10:03:25;99567.97;;;16.42;29.64
51053;BME280;37093;37.716;-122.060;2022-10-23T10:05:56;99562.81;;;16.36;29.62
51053;BME280;37093;37.716;-122.060;2022-10-23T10:08:33;99563.45;;;16.36;29.51
51053;BME280;37093;37.716;-122.060;2022-10-23T10:11:06;99559.69;;;16.33;29.60
51053;BME280;37093;37.716;-122.060;2022-10-23T10:13:55;99558.97;;;16.59;29.72
51053;BME280;37093;37.716;-122.060;2022-10-23T10:16:35;99560.94;;;16.33;29.59
51053;BME280;37093;37.716;-122.060;2022-10-23T10:19:20;99567.43;;;16.10;29.65
51053;BME280;37093;37.716;-122.060;2022-10-23T10:21:55;99566.09;;;16.14;29.64
51053;BME280;37093;37.716;-122.060;2022-10-23T10:24:34;99564.95;;;16.12;29.63
51053;BME280;37093;37.716;-122.060;2022-10-23T10:27:10;99562.60;;;16.03;29.73
51053;BME280;37093;37.716;-122.060;2022-10-23T10:29:54;99560.72;;;16.25;29.77
51053;BME280;37093;37.716;-122.060;2022-10-23T10:32:34;99561.73;;;15.70;30.10
51053;BME280;37093;37.716;-122.060;2022-10-23T10:35:18;99561.36;;;15.99;30.05
51053;BME280;37093;37.716;-122.060;2022-10-23T10:38:06;99557.87;;;16.20;30.13
51053;BME280;37093;37.716;-122.060;2022-10-23T10:40:41;99562.30;;;15.73;30.10
51053;BME280;37093;37.716;-122.060;2022-10-23T10:43:23;99566.99;;;15.69;30.14
51053;BME280;37093;37.716;-122.060;2022-10-23T10:45:59;99574.51;;;16.00;30.37
51053;BME280;37093;37.716;-122.060;2022-10-23T10:48:41;99577.30;;;15.60;30.12
51053;BME280;37093;37.716;-122.060;2022-10-23T10:51:23;99579.65;;;15.76;30.36
51053;BME280;37093;37.716;-122.060;2022-10-23T10:54:07;99575.50;;;15.64;30.21
51053;BME280;37093;37.716;-122.060;2022-10-23T10:56:40;99575.31;;;15.60;30.22
51053;BME280;37093;37.716;-122.060;2022-10-23T10:59:15;99574.62;;;15.83;30.38
51053;BME280;37093;37.716;-122.060;2022-10-23T11:01:54;99576.56;;;15.58;30.29
51053;BME280;37093;37.716;-122.060;2022-10-23T11:04:30;99582.20;;;15.81;30.39
51053;BME280;37093;37.716;-122.060;2022-10-23T11:07:06;99587.53;;;15.60;30.32
51053;BME280;37093;37.716;-122.060;2022-10-23T11:09:38;99587.23;;;15.74;30.28
51053;BME280;37093;37.716;-122.060;2022-10-23T11:12:15;99588.89;;;15.54;30.29
51053;BME280;37093;37.716;-122.060;2022-10-23T11:14:44;99589.45;;;16.04;29.95
51053;BME280;37093;37.716;-122.060;2022-10-23T11:17:17;99592.07;;;15.76;30.02
51053;BME280;37093;37.716;-122.060;2022-10-23T11:19:51;99591.57;;;15.72;30.11
51053;BME280;37093;37.716;-122.060;2022-10-23T11:22:28;99591.54;;;15.67;30.08
51053;BME280;37093;37.716;-122.060;2022-10-23T11:25:22;99591.64;;;15.92;30.43
51053;BME280;37093;37.716;-122.060;2022-10-23T11:28:12;99590.86;;;15.91;30.33
51053;BME280;37093;37.716;-122.060;2022-10-23T11:30:55;99589.03;;;15.60;30.31
51053;BME280;37093;37.716;-122.060;2022-10-23T11:34:19;99595.40;;;15.31;30.34
51053;BME280;37093;37.716;-122.060;2022-10-23T11:36:54;99592.45;;;15.53;30.31
51053;BME280;37093;37.716;-122.060;2022-10-23T11:39:26;99595.40;;;15.52;30.40
51053;BME280;37093;37.716;-122.060;2022-10-23T11:41:56;99599.31;;;15.50;30.49
51053;BME280;37093;37.716;-122.060;2022-10-23T11:44:38;99601.31;;;15.58;31.01
51053;BME280;37093;37.716;-122.060;2022-10-23T11:47:28;99599.90;;;15.30;31.40
51053;BME280;37093;37.716;-122.060;2022-10-23T11:50:15;99609.08;;;14.77;32.09
51053;BME280;37093;37.716;-122.060;2022-10-23T11:53:26;99611.02;;;15.18;31.62
51053;BME280;37093;37.716;-122.060;2022-10-23T11:56:02;99619.32;;;15.03;31.54
51053;BME280;37093;37.716;-122.060;2022-10-23T11:58:42;99620.38;;;15.33;31.45
51053;BME280;37093;37.716;-122.060;2022-10-23T12:01:27;99621.80;;;15.35;31.20
51053;BME280;37093;37.716;-122.060;2022-10-23T12:03:59;99625.94;;;15.41;31.38
51053;BME280;37093;37.716;-122.060;2022-10-23T12:06:32;99626.59;;;15.12;31.31
51053;BME280;37093;37.716;-122.060;2022-10-23T12:09:21;99631.36;;;15.39;31.15
51053;BME280;37093;37.716;-122.060;2022-10-23T12:12:03;99635.48;;;15.32;31.19
51053;BME280;37093;37.716;-122.060;2022-10-23T12:14:42;99639.55;;;15.33;31.10
51053;BME280;37093;37.716;-122.060;2022-10-23T12:17:28;99642.67;;;15.36;31.02
51053;BME280;37093;37.716;-122.060;2022-10-23T12:20:15;99644.67;;;15.37;30.91
51053;BME280;37093;37.716;-122.060;2022-10-23T12:22:51;99647.50;;;15.37;30.85
51053;BME280;37093;37.716;-122.060;2022-10-23T12:25:32;99653.96;;;15.40;30.49
51053;BME280;37093;37.716;-122.060;2022-10-23T12:28:09;99655.95;;;15.12;30.51
51053;BME280;37093;37.716;-122.060;2022-10-23T12:30:43;99654.29;;;15.38;30.92
51053;BME280;37093;37.716;-122.060;2022-10-23T12:33:22;99661.56;;;15.13;30.74
51053;BME280;37093;37.716;-122.060;2022-10-23T12:36:07;99662.67;;;15.38;30.70
51053;BME280;37093;37.716;-122.060;2022-10-23T12:38:43;99665.82;;;15.40;30.63
51053;BME280;37093;37.716;-122.060;2022-10-23T12:41:15;99666.66;;;15.16;30.51
51053;BME280;37093;37.716;-122.060;2022-10-23T12:43:49;99674.53;;;15.41;30.56
51053;BME280;37093;37.716;-122.060;2022-10-23T12:46:28;99678.57;;;15.43;30.73
51053;BME280;37093;37.716;-122.060;2022-10-23T12:48:59;99681.26;;;15.44;30.96
51053;BME280;37093;37.716;-122.060;2022-10-23T12:51:29;99685.81;;;15.41;30.71
51053;BME280;37093;37.716;-122.060;2022-10-23T12:53:59;99687.12;;;15.38;30.71
51053;BME280;37093;37.716;-122.060;2022-10-23T12:56:33;99694.06;;;15.35;30.85
51053;BME280;37093;37.716;-122.060;2022-10-23T12:59:09;99699.35;;;15.28;31.19